Jordan Escarpment

*Note: All times are displayed in the local standard time of the station location.
**Rain - Equipment is designed to accurately record liquid precipitation; under conditions when precipitation is not in liquid form, the data displayed may not properly reflect rainfall values.

Date Max Temp
(°C)
Min Temp
(°C)
Avg Temp
(°C)
Rain (mm) Avg RH (%)
Mon, Apr 23, 2018 14.5 1.1 8.1 0.0 54.7
Sun, Apr 22, 2018 15.6 -2.5 7.7 0.0 50.1
Sat, Apr 21, 2018 13.8 -3.7 4.9 0.0 61.8
Fri, Apr 20, 2018 8.3 -1.0 2.9 0.0 63.0
Thu, Apr 19, 2018 3.9 0.1 1.8 0.0 70.8
Wed, Apr 18, 2018 3.4 0.2 1.6 0.0 81.0
Tue, Apr 17, 2018 1.2 -1.5 0.1 0.8 78.7
DateTime Avg Temp (°C) Rain (mm) RH (%)
Tue, Apr 24, 2018 18:00 12.2 0.6 83.8
Tue, Apr 24, 2018 17:00 13.6 0.0 70.8
Tue, Apr 24, 2018 16:00 15.2 0.0 57.0
Tue, Apr 24, 2018 15:00 16.4 0.0 48.0
Tue, Apr 24, 2018 14:00 17.1 0.0 46.0
Tue, Apr 24, 2018 13:00 16.7 0.0 46.5
Tue, Apr 24, 2018 12:00 15.4 0.0 49.0
Tue, Apr 24, 2018 11:00 13.6 0.0 59.5
Tue, Apr 24, 2018 10:00 13.0 0.0 65.5
Tue, Apr 24, 2018 09:00 13.0 0.0 64.5
Tue, Apr 24, 2018 08:00 12.7 0.0 61.0
Tue, Apr 24, 2018 07:00 11.2 0.0 66.5
Tue, Apr 24, 2018 06:00 11.0 0.0 66.8
Tue, Apr 24, 2018 05:00 11.6 0.0 62.3
Tue, Apr 24, 2018 04:00 10.9 0.0 63.0
Tue, Apr 24, 2018 03:00 10.5 0.0 61.5
Tue, Apr 24, 2018 02:00 6.3 0.0 74.8
Tue, Apr 24, 2018 01:00 4.3 0.0 82.5
Tue, Apr 24, 2018 00:00 4.1 0.0 83.0
Mon, Apr 23, 2018 23:00 4.8 0.0 76.0
Mon, Apr 23, 2018 22:00 5.3 0.0 72.3
Mon, Apr 23, 2018 21:00 5.8 0.0 70.5
Mon, Apr 23, 2018 20:00 7.3 0.0 64.8
Mon, Apr 23, 2018 19:00 8.9 0.0 58.0
Mon, Apr 23, 2018 18:00 10.7 0.0 51.0
Mon, Apr 23, 2018 17:00 11.7 0.0 50.3
Mon, Apr 23, 2018 16:00 13.0 0.0 50.0
Mon, Apr 23, 2018 15:00 14.0 0.0 48.0
Mon, Apr 23, 2018 14:00 12.5 0.0 50.8
Mon, Apr 23, 2018 13:00 12.1 0.0 51.3
Mon, Apr 23, 2018 12:00 12.1 0.0 49.5
Mon, Apr 23, 2018 11:00 12.6 0.0 51.0
Mon, Apr 23, 2018 10:00 10.8 0.0 44.3
Mon, Apr 23, 2018 09:00 8.0 0.0 51.0
Mon, Apr 23, 2018 08:00 5.1 0.0 53.8
Mon, Apr 23, 2018 07:00 1.7 0.0 66.5
Mon, Apr 23, 2018 06:00 4.5 0.0 48.0
Mon, Apr 23, 2018 05:00 4.9 0.0 45.0
Mon, Apr 23, 2018 04:00 5.0 0.0 48.5
Mon, Apr 23, 2018 03:00 6.3 0.0 43.3
Mon, Apr 23, 2018 02:00 5.6 0.0 46.0
Mon, Apr 23, 2018 01:00 7.4 0.0 40.5
Mon, Apr 23, 2018 00:00 8.2 0.0 37.0
Sun, Apr 22, 2018 23:00 10.0 0.0 32.0
Sun, Apr 22, 2018 22:00 10.4 0.0 28.8
Sun, Apr 22, 2018 21:00 11.5 0.0 27.3
Sun, Apr 22, 2018 20:00 13.6 0.0 25.8
Sun, Apr 22, 2018 19:00 15.3 0.0 23.0


asterix Register now to access more data! asterix